createdAt,value
2022-09-16T04:00:28.842Z,3.40
2022-09-16T04:11:33.703Z,2.60
2022-09-16T04:22:33.579Z,1.70
2022-09-16T04:33:33.431Z,1.40
2022-09-16T04:44:33.308Z,2.80
2022-09-16T04:55:33.188Z,2.40
2022-09-16T05:06:33.071Z,2.50
2022-09-16T05:17:50.482Z,3.30
2022-09-16T05:28:32.817Z,2.40
2022-09-16T05:39:32.691Z,2.80
2022-09-16T05:50:32.569Z,2.10
2022-09-16T06:01:32.533Z,2.00
2022-09-16T06:12:32.349Z,1.90
2022-09-16T06:23:32.318Z,2.10
2022-09-16T06:34:32.086Z,2.20
2022-09-16T06:45:31.956Z,2.20
2022-09-16T06:56:31.844Z,2.50
2022-09-16T07:07:32.709Z,2.30
2022-09-16T07:18:31.586Z,2.50
2022-09-16T07:29:31.463Z,2.10
2022-09-16T07:40:31.509Z,1.90
2022-09-16T07:51:31.225Z,1.70
2022-09-16T08:02:34.932Z,2.30
2022-09-16T08:13:30.975Z,1.90
2022-09-16T08:24:30.851Z,2.20
2022-09-16T08:35:30.726Z,1.60
2022-09-16T08:46:30.721Z,1.30
2022-09-16T08:57:30.499Z,1.30
2022-09-16T09:08:30.380Z,2.10
2022-09-16T09:19:30.282Z,1.00
2022-09-16T09:30:30.117Z,1.30
2022-09-16T09:35:35.016Z,1.80
2022-09-16T09:46:39.760Z,1.50
2022-09-16T09:57:39.634Z,1.00
2022-09-16T10:08:39.553Z,1.00
2022-09-16T10:19:39.385Z,1.20
2022-09-16T10:30:39.274Z,1.70
2022-09-16T10:41:39.132Z,1.30
2022-09-16T10:52:39.004Z,1.20
2022-09-16T11:03:38.894Z,1.00
2022-09-16T11:14:38.763Z,1.20
2022-09-16T11:25:38.633Z,1.20
2022-09-16T11:36:38.712Z,1.10
2022-09-16T11:47:40.758Z,1.50
2022-09-16T11:58:38.386Z,2.20
2022-09-16T12:09:38.163Z,1.60
2022-09-16T12:20:38.025Z,1.70
2022-09-16T12:31:37.903Z,1.30
2022-09-16T12:42:37.758Z,1.50
2022-09-16T12:53:37.646Z,1.00
2022-09-16T13:04:37.511Z,1.40
2022-09-16T13:15:37.806Z,0.80
2022-09-16T13:26:37.265Z,1.10
2022-09-16T13:37:37.138Z,1.40
2022-09-16T13:48:37.012Z,1.90
2022-09-16T13:59:36.888Z,1.50
2022-09-16T14:10:36.772Z,1.00
2022-09-16T14:21:36.763Z,1.20
2022-09-16T14:32:36.520Z,0.90
2022-09-16T14:43:36.394Z,0.50
2022-09-16T14:54:37.269Z,0.90
2022-09-16T15:05:36.144Z,1.00
2022-09-16T15:16:36.020Z,1.10
2022-09-16T15:27:35.894Z,1.00
2022-09-16T15:38:35.770Z,0.90
2022-09-16T15:49:35.649Z,1.00
2022-09-16T16:00:35.523Z,1.10
2022-09-16T16:11:35.399Z,0.60
2022-09-16T16:22:35.443Z,1.60
2022-09-16T16:33:35.147Z,0.90
2022-09-16T16:44:35.145Z,0.90
2022-09-16T16:55:34.897Z,1.30
2022-09-16T17:06:34.772Z,1.60
2022-09-16T17:17:34.646Z,1.70
2022-09-16T17:28:34.532Z,1.60
2022-09-16T17:39:34.404Z,1.80
2022-09-16T17:50:34.265Z,1.60
2022-09-16T18:01:34.135Z,1.30
2022-09-16T18:12:34.005Z,1.10
2022-09-16T18:23:33.878Z,1.40
2022-09-16T18:34:33.891Z,1.60
2022-09-16T18:45:33.623Z,1.50
2022-09-16T18:56:33.494Z,1.00
2022-09-16T19:07:33.592Z,1.30
2022-09-16T19:18:33.247Z,1.50
2022-09-16T19:29:33.137Z,0.70
2022-09-16T19:40:33.060Z,1.20
2022-09-16T19:51:32.886Z,1.00
2022-09-16T20:02:32.788Z,1.40
2022-09-16T20:13:32.636Z,1.00
2022-09-16T20:24:32.512Z,1.20
2022-09-16T20:35:32.402Z,0.70
2022-09-16T20:46:32.288Z,0.80
2022-09-16T20:57:32.148Z,0.70
